createdAt,value
2023-09-02T00:00:50.626Z,17.60
2023-09-02T00:03:17.923Z,17.54
2023-09-02T00:05:45.054Z,17.45
2023-09-02T00:08:12.135Z,17.42
2023-09-02T00:10:40.400Z,17.31
2023-09-02T00:13:07.410Z,17.26
2023-09-02T00:15:34.344Z,17.16
2023-09-02T00:18:01.411Z,17.18
2023-09-02T00:20:28.523Z,17.05
2023-09-02T00:22:55.520Z,16.74
2023-09-02T00:25:23.970Z,16.77
2023-09-02T00:27:53.243Z,16.83
2023-09-02T00:30:20.452Z,16.82
2023-09-02T00:32:47.498Z,16.81
2023-09-02T00:35:14.542Z,16.78
2023-09-02T00:37:41.677Z,16.79
2023-09-02T00:40:15.009Z,16.82
2023-09-02T00:42:42.605Z,16.81
2023-09-02T00:45:11.328Z,16.75
2023-09-02T00:47:39.628Z,16.71
2023-09-02T00:50:07.748Z,16.64
2023-09-02T00:52:34.641Z,16.59
2023-09-02T00:55:02.323Z,16.56
2023-09-02T00:57:29.532Z,16.53
2023-09-02T00:59:56.659Z,16.41
2023-09-02T01:02:25.464Z,16.27
2023-09-02T01:04:52.592Z,16.27
2023-09-02T01:07:19.760Z,16.19
2023-09-02T01:09:46.878Z,16.12
2023-09-02T01:12:14.421Z,16.17
2023-09-02T01:14:41.450Z,16.27
2023-09-02T01:17:08.500Z,16.27
2023-09-02T01:19:37.704Z,16.24
2023-09-02T01:22:16.782Z,16.25
2023-09-02T01:25:08.833Z,16.18
2023-09-02T01:27:39.589Z,16.12
2023-09-02T01:30:09.719Z,16.16
2023-09-02T01:32:41.830Z,16.16
2023-09-02T01:35:09.385Z,15.99
2023-09-02T01:37:41.662Z,15.90
2023-09-02T01:40:09.715Z,15.98
2023-09-02T01:42:38.807Z,16.01
2023-09-02T01:45:06.843Z,16.00
2023-09-02T01:47:34.040Z,16.04
2023-09-02T01:50:02.572Z,16.00
2023-09-02T01:52:30.756Z,15.95
2023-09-02T01:54:57.982Z,15.82
2023-09-02T01:57:26.187Z,15.65
2023-09-02T01:59:54.849Z,15.62
2023-09-02T02:02:22.233Z,15.66
2023-09-02T02:04:54.414Z,15.71
2023-09-02T02:07:22.831Z,15.72
2023-09-02T02:09:53.636Z,15.72
2023-09-02T02:12:21.478Z,15.73
2023-09-02T02:14:48.799Z,15.77
2023-09-02T02:17:17.304Z,15.75
2023-09-02T02:19:45.305Z,15.66
2023-09-02T02:22:12.108Z,15.65
2023-09-02T02:24:39.194Z,15.55
2023-09-02T02:27:06.484Z,15.53
2023-09-02T02:29:33.537Z,15.52
2023-09-02T02:32:00.811Z,15.48
2023-09-02T02:34:29.260Z,15.45
2023-09-02T02:36:56.324Z,15.45
2023-09-02T02:39:23.421Z,15.47
2023-09-02T02:41:50.549Z,15.53
2023-09-02T02:44:17.558Z,15.53
2023-09-02T02:46:44.597Z,15.47
2023-09-02T02:49:12.839Z,15.50
2023-09-02T02:51:41.250Z,15.51
2023-09-02T02:54:08.277Z,15.49
2023-09-02T02:56:35.289Z,15.42
2023-09-02T02:59:02.337Z,15.41
2023-09-02T03:01:31.444Z,15.37
2023-09-02T03:04:00.748Z,15.31
2023-09-02T03:06:28.314Z,15.34
2023-09-02T03:08:56.726Z,15.31
2023-09-02T03:11:23.785Z,15.27
2023-09-02T03:13:51.032Z,15.12
2023-09-02T03:16:22.602Z,15.13
2023-09-02T03:18:50.017Z,15.11
2023-09-02T03:21:18.455Z,15.15
2023-09-02T03:23:45.415Z,15.15
2023-09-02T03:26:16.606Z,15.09
2023-09-02T03:28:46.044Z,14.97
2023-09-02T03:31:13.379Z,14.94
2023-09-02T03:33:43.010Z,14.93
2023-09-02T03:36:17.023Z,14.93
2023-09-02T03:38:45.316Z,14.99
2023-09-02T03:41:18.364Z,14.97
2023-09-02T03:43:46.369Z,14.93
2023-09-02T03:46:14.337Z,14.98
2023-09-02T03:48:42.026Z,14.99
2023-09-02T03:51:13.723Z,15.04
2023-09-02T03:53:45.115Z,15.07
2023-09-02T03:56:15.342Z,15.00
2023-09-02T03:58:42.610Z,15.00
2023-09-02T04:01:10.353Z,15.06
2023-09-02T04:03:37.685Z,15.04
2023-09-02T04:06:08.176Z,15.06
2023-09-02T04:08:35.919Z,15.08
2023-09-02T04:11:04.051Z,15.06
2023-09-02T04:13:32.586Z,15.12
2023-09-02T04:16:09.597Z,15.15
2023-09-02T04:18:36.854Z,15.20
2023-09-02T04:21:04.761Z,15.21
2023-09-02T04:23:33.721Z,15.21
2023-09-02T04:26:09.528Z,15.25
2023-09-02T04:28:38.914Z,15.29
2023-09-02T04:31:06.205Z,15.33
2023-09-02T04:33:34.951Z,15.39
2023-09-02T04:36:03.999Z,15.50
2023-09-02T04:38:34.352Z,15.57
2023-09-02T04:41:03.083Z,15.60
2023-09-02T04:43:30.174Z,15.63
2023-09-02T04:46:01.054Z,15.72
2023-09-02T04:48:28.109Z,15.76
2023-09-02T04:50:55.239Z,15.79
2023-09-02T04:53:24.725Z,15.92
2023-09-02T04:55:53.216Z,16.06
2023-09-02T04:58:24.227Z,16.15
2023-09-02T05:00:53.785Z,16.24
2023-09-02T05:03:23.125Z,16.30
2023-09-02T05:05:50.966Z,16.38
2023-09-02T05:08:18.821Z,16.47
2023-09-02T05:10:46.294Z,16.59
2023-09-02T05:13:13.423Z,16.68
2023-09-02T05:15:40.577Z,16.79
2023-09-02T05:18:08.852Z,16.92
2023-09-02T05:20:40.859Z,17.06
2023-09-02T05:23:08.426Z,17.15
2023-09-02T05:25:35.526Z,17.27
2023-09-02T05:28:03.215Z,17.41
2023-09-02T05:30:30.666Z,17.49
2023-09-02T05:32:57.836Z,17.61
2023-09-02T05:35:25.015Z,17.74
2023-09-02T05:37:53.434Z,17.82
2023-09-02T05:40:20.440Z,17.93
2023-09-02T05:42:47.410Z,18.04
2023-09-02T05:45:14.676Z,18.11
2023-09-02T05:47:41.635Z,18.23
2023-09-02T05:50:09.149Z,18.33
2023-09-02T05:52:36.202Z,18.45
2023-09-02T05:55:05.470Z,18.56
2023-09-02T05:57:33.475Z,18.70
2023-09-02T06:00:00.309Z,18.83
2023-09-02T06:02:29.175Z,18.90
2023-09-02T06:04:56.186Z,18.95
2023-09-02T06:07:23.249Z,19.03
2023-09-02T06:09:50.310Z,19.12
2023-09-02T06:12:18.673Z,19.17
2023-09-02T06:14:45.843Z,19.30
2023-09-02T06:17:12.912Z,19.39
2023-09-02T06:19:39.945Z,19.48
2023-09-02T06:22:06.856Z,19.61
2023-09-02T06:24:33.841Z,19.70
2023-09-02T06:27:04.884Z,19.82
2023-09-02T06:29:33.798Z,19.96
2023-09-02T06:32:00.823Z,20.09
2023-09-02T06:34:29.081Z,20.24
2023-09-02T06:36:56.152Z,20.16
2023-09-02T06:39:23.192Z,20.30
2023-09-02T06:41:52.064Z,20.47
2023-09-02T06:44:23.475Z,20.56
2023-09-02T06:46:51.789Z,20.70
2023-09-02T06:49:18.767Z,20.86
2023-09-02T06:51:45.901Z,20.83
2023-09-02T06:54:12.858Z,20.92
2023-09-02T06:56:39.925Z,21.12
2023-09-02T06:59:06.907Z,21.26
2023-09-02T07:01:34.067Z,21.45
2023-09-02T07:04:02.496Z,21.49
2023-09-02T07:06:29.910Z,21.38
2023-09-02T07:08:56.980Z,21.55
2023-09-02T07:11:23.938Z,21.65
2023-09-02T07:13:50.945Z,21.87
2023-09-02T07:16:18.129Z,22.00
2023-09-02T07:18:45.195Z,22.22
2023-09-02T07:21:13.603Z,22.39
2023-09-02T07:23:40.656Z,22.52
2023-09-02T07:26:07.650Z,22.63
2023-09-02T07:28:35.104Z,22.56
2023-09-02T07:31:03.090Z,22.71
2023-09-02T07:33:30.905Z,22.93
2023-09-02T07:35:59.097Z,23.17
2023-09-02T07:38:28.805Z,23.36
2023-09-02T07:40:55.743Z,23.55
2023-09-02T07:43:22.702Z,23.74
2023-09-02T07:45:50.428Z,23.99
2023-09-02T07:48:17.570Z,24.08
2023-09-02T07:50:44.731Z,24.14
2023-09-02T07:53:11.727Z,24.27
2023-09-02T07:55:40.244Z,24.46
2023-09-02T07:58:07.426Z,24.68
2023-09-02T08:00:35.167Z,24.93
2023-09-02T08:03:02.820Z,25.17
2023-09-02T08:05:30.072Z,25.38
2023-09-02T08:07:57.317Z,25.62
2023-09-02T08:10:24.804Z,25.81
2023-09-02T08:12:52.962Z,25.97
2023-09-02T08:15:21.114Z,26.16
2023-09-02T08:17:48.124Z,26.19
2023-09-02T08:20:15.519Z,26.33
2023-09-02T08:22:44.335Z,26.51
2023-09-02T08:25:12.137Z,26.60
2023-09-02T08:27:39.189Z,26.41
2023-09-02T08:30:08.664Z,26.31
2023-09-02T08:32:35.695Z,26.58
2023-09-02T08:35:03.470Z,26.95
2023-09-02T08:37:32.493Z,27.22
2023-09-02T08:39:59.571Z,27.40
2023-09-02T08:42:27.795Z,27.57
2023-09-02T08:44:55.199Z,27.75
2023-09-02T08:47:23.432Z,27.96
2023-09-02T08:49:50.920Z,28.17
2023-09-02T08:52:17.678Z,28.41
2023-09-02T08:54:44.815Z,28.47
2023-09-02T08:57:12.484Z,28.63
2023-09-02T08:59:40.100Z,28.89
2023-09-02T09:02:08.511Z,29.02
2023-09-02T09:04:37.515Z,28.93
2023-09-02T09:07:06.049Z,28.88
2023-09-02T09:09:33.910Z,28.68
2023-09-02T09:12:02.821Z,28.46
2023-09-02T09:14:32.465Z,28.66
2023-09-02T09:17:00.423Z,28.92
2023-09-02T09:19:28.946Z,29.23
2023-09-02T09:21:58.421Z,29.36
2023-09-02T09:24:25.458Z,29.68
2023-09-02T09:26:52.946Z,29.72
2023-09-02T09:29:22.534Z,29.66
2023-09-02T09:31:52.605Z,29.84
2023-09-02T09:34:19.681Z,29.74
2023-09-02T09:36:59.246Z,29.51
2023-09-02T09:39:39.028Z,28.91
2023-09-02T09:42:06.691Z,28.96
2023-09-02T09:44:33.614Z,29.38
2023-09-02T09:47:02.078Z,29.67
2023-09-02T09:49:30.252Z,29.79
2023-09-02T09:52:11.222Z,29.71
2023-09-02T09:54:39.305Z,29.77
2023-09-02T09:57:06.789Z,30.15
2023-09-02T09:59:35.816Z,30.39
2023-09-02T10:02:03.195Z,30.68
2023-09-02T10:04:30.226Z,30.76
2023-09-02T10:07:01.516Z,31.05
2023-09-02T10:09:41.700Z,30.96
2023-09-02T10:12:12.595Z,30.65
2023-09-02T10:14:40.208Z,30.84
2023-09-02T10:17:07.559Z,31.30
2023-09-02T10:19:35.465Z,31.04
2023-09-02T10:22:03.027Z,30.80
2023-09-02T10:24:34.019Z,30.76
2023-09-02T10:27:05.375Z,31.05
2023-09-02T10:29:34.402Z,31.24
2023-09-02T10:32:06.435Z,31.64
2023-09-02T10:34:37.004Z,31.91
2023-09-02T10:37:06.434Z,31.98
2023-09-02T10:39:39.692Z,32.51
2023-09-02T10:42:08.226Z,32.94
2023-09-02T10:44:35.444Z,33.21
2023-09-02T10:47:02.738Z,33.34
2023-09-02T10:49:30.047Z,33.43
2023-09-02T10:51:57.309Z,33.37
2023-09-02T10:54:24.287Z,33.25
2023-09-02T10:56:51.154Z,33.21
2023-09-02T10:59:32.988Z,33.56
2023-09-02T11:02:00.037Z,33.80
2023-09-02T11:04:47.025Z,33.88
2023-09-02T11:07:26.618Z,33.78
2023-09-02T11:09:55.205Z,34.18
2023-09-02T11:12:22.803Z,34.47
2023-09-02T11:15:19.835Z,34.76
2023-09-02T11:17:47.195Z,34.94
2023-09-02T11:20:15.552Z,34.77
2023-09-02T11:22:54.858Z,34.56
2023-09-02T11:25:39.847Z,34.13
2023-09-02T11:28:08.274Z,33.82
2023-09-02T11:30:38.476Z,33.87
2023-09-02T11:33:06.168Z,33.93
2023-09-02T11:35:34.724Z,34.03
2023-09-02T11:38:02.831Z,34.46
2023-09-02T11:40:29.975Z,34.73
2023-09-02T11:43:00.644Z,34.69
2023-09-02T11:45:29.683Z,34.57
2023-09-02T11:47:58.445Z,34.37
2023-09-02T11:50:26.151Z,33.97
2023-09-02T11:52:54.464Z,34.06
2023-09-02T11:55:21.995Z,34.20
2023-09-02T11:57:49.261Z,34.30
2023-09-02T12:00:17.556Z,34.63
2023-09-02T12:02:45.720Z,34.22
2023-09-02T12:05:14.445Z,34.36
2023-09-02T12:07:42.572Z,34.16
2023-09-02T12:10:11.333Z,34.06
2023-09-02T12:12:41.818Z,34.39
2023-09-02T12:15:12.189Z,34.66
2023-09-02T12:17:40.008Z,34.86
2023-09-02T12:20:09.158Z,35.14
2023-09-02T12:22:38.536Z,35.42
2023-09-02T12:25:13.320Z,35.75
2023-09-02T12:27:42.717Z,36.01
2023-09-02T12:30:12.228Z,36.19
2023-09-02T12:32:39.460Z,36.26
2023-09-02T12:35:10.009Z,36.36
2023-09-02T12:37:38.553Z,36.47
2023-09-02T12:40:12.996Z,36.40
2023-09-02T12:42:41.097Z,35.98
2023-09-02T12:45:10.048Z,35.65
2023-09-02T12:47:39.570Z,35.30
2023-09-02T12:50:07.428Z,34.93
2023-09-02T12:52:36.252Z,34.51
2023-09-02T12:55:06.534Z,34.27
2023-09-02T12:57:34.365Z,34.13
2023-09-02T13:00:02.897Z,34.17
2023-09-02T13:02:30.891Z,33.88
2023-09-02T13:05:01.285Z,33.65
2023-09-02T13:07:29.476Z,33.19
2023-09-02T13:09:56.546Z,33.10
2023-09-02T13:12:27.020Z,33.19
2023-09-02T13:14:53.973Z,33.42
2023-09-02T13:17:20.949Z,33.63
2023-09-02T13:19:47.777Z,33.70
2023-09-02T13:22:15.327Z,33.70
2023-09-02T13:24:45.061Z,33.86
2023-09-02T13:27:12.075Z,33.80
2023-09-02T13:29:40.530Z,34.05
2023-09-02T13:32:09.229Z,34.13
2023-09-02T13:34:37.498Z,34.26
2023-09-02T13:37:08.858Z,34.58
2023-09-02T13:39:36.687Z,34.74
2023-09-02T13:42:04.004Z,34.72
2023-09-02T13:44:31.216Z,34.82
2023-09-02T13:47:06.192Z,35.00
2023-09-02T13:49:34.685Z,35.08
2023-09-02T13:52:02.412Z,35.18
2023-09-02T13:54:29.545Z,35.42
2023-09-02T13:56:56.621Z,35.70
2023-09-02T13:59:25.093Z,35.93
2023-09-02T14:01:52.582Z,35.75
2023-09-02T14:04:21.386Z,35.61
2023-09-02T14:06:48.476Z,35.69
2023-09-02T14:09:20.321Z,35.85
2023-09-02T14:11:47.625Z,35.92
2023-09-02T14:14:16.317Z,35.76
2023-09-02T14:16:43.281Z,35.83
2023-09-02T14:19:10.046Z,35.89
2023-09-02T14:21:38.528Z,35.79
2023-09-02T14:24:06.291Z,35.79
2023-09-02T14:26:33.927Z,35.77
2023-09-02T14:29:01.093Z,35.78
2023-09-02T14:31:28.232Z,35.77
2023-09-02T14:33:55.563Z,35.76
2023-09-02T14:36:23.086Z,35.79
2023-09-02T14:38:51.454Z,35.97
2023-09-02T14:41:18.551Z,36.12
2023-09-02T14:43:51.729Z,36.19
2023-09-02T14:46:18.951Z,36.18
2023-09-02T14:48:46.691Z,35.93
2023-09-02T14:51:14.107Z,35.69
2023-09-02T14:53:41.255Z,35.45
2023-09-02T14:56:09.819Z,35.18
2023-09-02T14:58:37.049Z,34.93
2023-09-02T15:01:05.233Z,34.76
2023-09-02T15:03:37.794Z,34.84
2023-09-02T15:06:05.892Z,34.89
2023-09-02T15:08:34.144Z,34.93
2023-09-02T15:11:01.526Z,34.98
2023-09-02T15:13:30.512Z,34.99
2023-09-02T15:15:58.143Z,35.04
2023-09-02T15:18:27.954Z,34.51
2023-09-02T15:20:55.225Z,34.14
2023-09-02T15:23:22.363Z,33.70
2023-09-02T15:25:49.628Z,33.80
2023-09-02T15:28:16.829Z,33.96
2023-09-02T15:30:45.269Z,34.03
2023-09-02T15:33:12.884Z,33.98
2023-09-02T15:35:39.950Z,33.88
2023-09-02T15:38:08.037Z,33.60
2023-09-02T15:40:35.210Z,33.33
2023-09-02T15:43:03.928Z,32.95
2023-09-02T15:45:31.584Z,32.47
2023-09-02T15:48:00.232Z,32.15
2023-09-02T15:50:28.502Z,31.90
2023-09-02T15:52:55.563Z,31.74
2023-09-02T15:55:26.377Z,31.58
2023-09-02T15:57:55.473Z,31.47
2023-09-02T16:00:22.475Z,31.36
2023-09-02T16:02:49.678Z,31.32
2023-09-02T16:05:18.411Z,31.37
2023-09-02T16:07:48.475Z,31.30
2023-09-02T16:10:15.626Z,31.24
2023-09-02T16:12:42.429Z,31.18
2023-09-02T16:15:12.440Z,31.05
2023-09-02T16:17:40.969Z,30.87
2023-09-02T16:20:11.614Z,30.71
2023-09-02T16:22:41.315Z,30.57
2023-09-02T16:25:09.544Z,30.38
2023-09-02T16:27:36.699Z,30.17
2023-09-02T16:30:06.030Z,29.86
2023-09-02T16:32:33.701Z,29.54
2023-09-02T16:35:00.848Z,29.38
2023-09-02T16:37:27.886Z,29.28
2023-09-02T16:39:57.224Z,29.07
2023-09-02T16:42:30.228Z,28.91
2023-09-02T16:45:07.028Z,28.64
2023-09-02T16:47:40.387Z,28.52
2023-09-02T16:50:08.764Z,28.44
2023-09-02T16:52:40.189Z,28.38
2023-09-02T16:55:15.559Z,28.23
2023-09-02T16:57:44.684Z,27.94
2023-09-02T17:00:13.429Z,27.78
2023-09-02T17:02:43.097Z,27.72
2023-09-02T17:05:17.117Z,27.60
2023-09-02T17:07:44.384Z,27.43
2023-09-02T17:10:16.711Z,27.28
2023-09-02T17:12:44.402Z,27.14
2023-09-02T17:15:15.575Z,27.08
2023-09-02T17:17:46.219Z,26.94
2023-09-02T17:20:25.419Z,26.77
2023-09-02T17:22:52.839Z,26.52
2023-09-02T17:25:20.964Z,26.23
2023-09-02T17:27:49.247Z,26.06
2023-09-02T17:30:18.791Z,26.00
2023-09-02T17:32:46.707Z,25.85
2023-09-02T17:35:13.925Z,25.52
2023-09-02T17:37:42.334Z,25.28
2023-09-02T17:40:10.010Z,25.15
2023-09-02T17:42:41.191Z,24.98
2023-09-02T17:45:09.254Z,24.62
2023-09-02T17:47:37.311Z,24.44
2023-09-02T17:50:05.470Z,24.25
2023-09-02T17:52:32.418Z,24.08
2023-09-02T17:54:59.446Z,24.00
2023-09-02T17:57:26.390Z,23.88
2023-09-02T17:59:54.840Z,23.91
2023-09-02T18:02:21.939Z,23.88
2023-09-02T18:04:49.290Z,23.61
2023-09-02T18:07:16.540Z,23.44
2023-09-02T18:09:45.027Z,23.41
2023-09-02T18:12:12.068Z,23.24
2023-09-02T18:14:45.064Z,23.13
2023-09-02T18:17:13.745Z,23.10
2023-09-02T18:19:41.518Z,23.01
2023-09-02T18:22:08.620Z,22.97
2023-09-02T18:24:36.864Z,22.86
2023-09-02T18:27:04.407Z,22.68
2023-09-02T18:29:31.327Z,22.54
2023-09-02T18:31:58.240Z,22.38
2023-09-02T18:34:26.997Z,22.26
2023-09-02T18:36:54.108Z,22.23
2023-09-02T18:39:25.093Z,22.17
2023-09-02T18:41:52.400Z,22.10
2023-09-02T18:44:19.995Z,22.03
2023-09-02T18:46:47.078Z,21.98
2023-09-02T18:49:15.149Z,22.02
2023-09-02T18:51:43.638Z,21.99
2023-09-02T18:54:11.075Z,21.95
2023-09-02T18:56:38.498Z,21.90
2023-09-02T18:59:05.918Z,21.88
2023-09-02T19:01:32.921Z,21.82
2023-09-02T19:04:00.752Z,21.78
2023-09-02T19:06:27.458Z,21.73
2023-09-02T19:08:55.816Z,21.68
2023-09-02T19:11:41.045Z,21.66
2023-09-02T19:14:08.214Z,21.61
2023-09-02T19:16:35.479Z,21.57
2023-09-02T19:19:04.224Z,21.58
2023-09-02T19:21:33.372Z,21.60
2023-09-02T19:24:01.763Z,21.64
2023-09-02T19:26:28.899Z,21.57
2023-09-02T19:28:55.868Z,21.56
2023-09-02T19:31:22.865Z,21.54
2023-09-02T19:33:49.953Z,21.52
2023-09-02T19:36:17.081Z,21.52
2023-09-02T19:38:44.092Z,21.44
2023-09-02T19:41:12.621Z,21.42
2023-09-02T19:43:40.372Z,21.43
2023-09-02T19:46:07.748Z,21.34
2023-09-02T19:48:34.764Z,21.34
2023-09-02T19:51:01.814Z,21.17
2023-09-02T19:53:28.912Z,21.07
2023-09-02T19:55:56.908Z,20.89
2023-09-02T19:58:25.306Z,20.79
2023-09-02T20:00:52.250Z,20.70
2023-09-02T20:03:19.317Z,20.70
2023-09-02T20:05:47.500Z,20.73
2023-09-02T20:08:14.641Z,20.64
2023-09-02T20:10:41.919Z,20.60
2023-09-02T20:13:09.112Z,20.50
2023-09-02T20:15:37.695Z,20.61
2023-09-02T20:18:05.758Z,20.65
2023-09-02T20:20:33.909Z,20.68
2023-09-02T20:23:01.202Z,20.67
2023-09-02T20:25:31.595Z,20.77
2023-09-02T20:27:58.630Z,20.77
2023-09-02T20:30:25.636Z,20.72
2023-09-02T20:32:54.120Z,20.61
2023-09-02T20:35:21.153Z,20.56
2023-09-02T20:37:48.125Z,20.44
2023-09-02T20:40:15.702Z,20.35
2023-09-02T20:42:42.715Z,20.22
2023-09-02T20:45:10.357Z,20.12
2023-09-02T20:47:37.351Z,20.08
2023-09-02T20:50:06.769Z,20.05
2023-09-02T20:52:33.869Z,19.99
2023-09-02T20:55:00.857Z,19.82
2023-09-02T20:57:28.055Z,19.75
2023-09-02T20:59:55.288Z,19.71
2023-09-02T21:02:22.382Z,19.70
2023-09-02T21:04:49.588Z,19.72
2023-09-02T21:07:17.955Z,19.67
2023-09-02T21:09:44.947Z,19.64
2023-09-02T21:12:13.707Z,19.45
2023-09-02T21:14:41.535Z,19.31
2023-09-02T21:17:08.911Z,19.28
2023-09-02T21:19:37.967Z,19.22
2023-09-02T21:22:05.732Z,19.24
2023-09-02T21:24:34.214Z,19.35
2023-09-02T21:27:01.294Z,19.32
2023-09-02T21:29:28.440Z,19.30
2023-09-02T21:31:55.490Z,19.29
2023-09-02T21:34:22.695Z,19.15
2023-09-02T21:36:49.779Z,19.04
2023-09-02T21:39:16.909Z,18.95
2023-09-02T21:41:45.399Z,18.97
2023-09-02T21:44:13.488Z,18.91
2023-09-02T21:46:40.834Z,18.88
2023-09-02T21:49:08.030Z,18.71
2023-09-02T21:51:35.011Z,18.63
2023-09-02T21:54:01.942Z,18.62
2023-09-02T21:56:28.943Z,18.55
2023-09-02T21:58:57.308Z,18.44
2023-09-02T22:01:24.286Z,18.40
2023-09-02T22:03:51.330Z,18.34
2023-09-02T22:06:18.856Z,18.29
2023-09-02T22:08:47.932Z,18.19
2023-09-02T22:11:15.973Z,18.13
2023-09-02T22:13:43.790Z,18.01
2023-09-02T22:16:12.286Z,18.08
2023-09-02T22:18:41.396Z,18.05
2023-09-02T22:21:11.812Z,17.96
2023-09-02T22:23:39.023Z,17.92
2023-09-02T22:26:06.772Z,17.87
2023-09-02T22:28:35.373Z,17.75
2023-09-02T22:31:03.098Z,17.65
2023-09-02T22:33:32.306Z,17.70
2023-09-02T22:35:59.338Z,17.71
2023-09-02T22:38:48.107Z,17.82
2023-09-02T22:41:14.653Z,17.94
2023-09-02T22:43:41.651Z,17.94
2023-09-02T22:46:09.862Z,17.92
2023-09-02T22:48:38.375Z,17.90
2023-09-02T22:51:06.422Z,17.94
2023-09-02T22:53:33.288Z,17.95
2023-09-02T22:56:00.394Z,17.97
2023-09-02T22:58:27.357Z,18.00
2023-09-02T23:00:54.490Z,17.98
2023-09-02T23:03:21.853Z,17.94
2023-09-02T23:05:50.529Z,17.88
2023-09-02T23:08:17.444Z,17.86
2023-09-02T23:10:44.478Z,17.80
2023-09-02T23:13:11.416Z,17.79
2023-09-02T23:15:38.766Z,17.79
2023-09-02T23:18:06.105Z,17.74
2023-09-02T23:20:33.654Z,17.70
2023-09-02T23:23:02.097Z,17.68
2023-09-02T23:25:29.312Z,17.66
2023-09-02T23:27:56.338Z,17.62
2023-09-02T23:30:23.361Z,17.64
2023-09-02T23:32:51.452Z,17.51
2023-09-02T23:35:18.739Z,17.45
2023-09-02T23:37:45.919Z,17.37
2023-09-02T23:40:18.291Z,17.35
2023-09-02T23:42:45.294Z,17.25
2023-09-02T23:45:12.507Z,17.34
2023-09-02T23:47:39.533Z,17.32
2023-09-02T23:50:07.326Z,17.29
2023-09-02T23:52:34.524Z,17.24
2023-09-02T23:55:01.605Z,17.17
2023-09-02T23:57:30.026Z,17.04
2023-09-02T23:59:57.063Z,16.98
